CAT ESP
Pilots school
Telephone 972234126 972 23 41 26
 
Aerbrava - Aeronautical weather

Aeronautical weather

 

This section shows the meteorological information that is used in the practice of students in the pilot school at our center during training, so it may not be current and should be used at your own risk. AERBRAVA is not responsible for its use.

 

ACTUAL WEATHER

Satellite weather image

sat24.com

Servei Meteorològic de Catalunya

 

LEGE 291200Z 05005KT 9999 FEW050 28/13 Q1015
LEGE 291130Z 15002KT 9999 FEW050 28/12 Q1016
LEGE 291100Z VRB04KT 9999 FEW050 27/12 Q1016
LEGE 291030Z 09005KT 350V160 9999 FEW050 27/12 Q1016
LEGE 291000Z 09004KT CAVOK 26/13 Q1016
LEGE 290930Z 06004KT 340V150 9999 FEW040 25/13 Q1016
LEGE 290900Z 06004KT 340V140 CAVOK 24/13 Q1017
LEGE 290830Z 03005KT 360V070 CAVOK 23/13 Q1017
TAF LEGE 291100Z 2912/3012 06010KT 9999 FEW030 TX28/2912Z TN16/3006Z   PROB40   TEMPO 2915/2920 18010KT 3000 SHRA FEW050CB   PROB30   TEMPO 2916/2920 18010KT 2000 TSRA FEW050CB   BECMG 2916/2918 VRB04KT   TEMPO 2922/3006 1000 BCFG BKN003

Aviation Weather

 
Aerbrava facebook Aerbrava twitter Aerbrava instagram Aerbrava Youtube Aerbrava tumblr Aerbrava flikr Aerbrava pinterest

¡html Vàlid! ¡CSS Vàlid!